sensor_id;sensor_type;location;lat;lon;timestamp;P1;durP1;ratioP1;P2;durP2;ratioP2
51270;SDS011;37744;50.960;4.136;2023-03-14T00:01:09;11.57;;;1.45;;
51270;SDS011;37744;50.960;4.136;2023-03-14T00:03:34;5.45;;;1.20;;
51270;SDS011;37744;50.960;4.136;2023-03-14T00:06:03;7.35;;;1.55;;
51270;SDS011;37744;50.960;4.136;2023-03-14T00:08:29;4.38;;;1.05;;
51270;SDS011;37744;50.960;4.136;2023-03-14T00:10:54;6.60;;;1.60;;
51270;SDS011;37744;50.960;4.136;2023-03-14T00:13:19;6.30;;;1.70;;
51270;SDS011;37744;50.960;4.136;2023-03-14T00:15:45;3.65;;;1.25;;
51270;SDS011;37744;50.960;4.136;2023-03-14T00:18:10;4.80;;;1.67;;
51270;SDS011;37744;50.960;4.136;2023-03-14T00:20:35;11.30;;;1.60;;
51270;SDS011;37744;50.960;4.136;2023-03-14T00:23:01;9.45;;;1.80;;
51270;SDS011;37744;50.960;4.136;2023-03-14T00:25:27;8.57;;;1.95;;
51270;SDS011;37744;50.960;4.136;2023-03-14T00:27:52;9.90;;;1.73;;
51270;SDS011;37744;50.960;4.136;2023-03-14T00:30:18;12.50;;;1.90;;
51270;SDS011;37744;50.960;4.136;2023-03-14T00:32:43;11.77;;;1.77;;
51270;SDS011;37744;50.960;4.136;2023-03-14T00:35:09;8.57;;;2.17;;
51270;SDS011;37744;50.960;4.136;2023-03-14T00:37:34;7.68;;;1.58;;
51270;SDS011;37744;50.960;4.136;2023-03-14T00:39:59;8.02;;;1.70;;
51270;SDS011;37744;50.960;4.136;2023-03-14T00:42:25;5.68;;;1.45;;
51270;SDS011;37744;50.960;4.136;2023-03-14T00:44:50;11.23;;;2.13;;
51270;SDS011;37744;50.960;4.136;2023-03-14T00:47:15;10.45;;;2.15;;
51270;SDS011;37744;50.960;4.136;2023-03-14T00:49:40;8.70;;;1.60;;
51270;SDS011;37744;50.960;4.136;2023-03-14T00:52:08;7.78;;;1.98;;
51270;SDS011;37744;50.960;4.136;2023-03-14T00:54:35;12.15;;;2.40;;
51270;SDS011;37744;50.960;4.136;2023-03-14T00:57:00;7.22;;;2.40;;
51270;SDS011;37744;50.960;4.136;2023-03-14T00:59:25;13.07;;;2.33;;
51270;SDS011;37744;50.960;4.136;2023-03-14T01:01:50;8.90;;;1.90;;
51270;SDS011;37744;50.960;4.136;2023-03-14T01:04:16;11.45;;;2.00;;
51270;SDS011;37744;50.960;4.136;2023-03-14T01:06:42;8.20;;;1.90;;
51270;SDS011;37744;50.960;4.136;2023-03-14T01:09:07;11.32;;;2.50;;
51270;SDS011;37744;50.960;4.136;2023-03-14T01:11:33;13.95;;;2.30;;
51270;SDS011;37744;50.960;4.136;2023-03-14T01:13:59;6.15;;;1.85;;
51270;SDS011;37744;50.960;4.136;2023-03-14T01:16:25;9.95;;;2.10;;
51270;SDS011;37744;50.960;4.136;2023-03-14T01:18:51;7.95;;;1.98;;
51270;SDS011;37744;50.960;4.136;2023-03-14T01:23:43;11.32;;;2.00;;
51270;SDS011;37744;50.960;4.136;2023-03-14T01:26:10;14.68;;;2.33;;
51270;SDS011;37744;50.960;4.136;2023-03-14T01:28:36;9.75;;;2.17;;
51270;SDS011;37744;50.960;4.136;2023-03-14T01:31:03;10.77;;;2.20;;
51270;SDS011;37744;50.960;4.136;2023-03-14T01:33:29;8.88;;;1.95;;
51270;SDS011;37744;50.960;4.136;2023-03-14T01:35:54;9.10;;;2.17;;
51270;SDS011;37744;50.960;4.136;2023-03-14T01:38:20;9.82;;;1.55;;
51270;SDS011;37744;50.960;4.136;2023-03-14T01:40:46;9.65;;;1.95;;
51270;SDS011;37744;50.960;4.136;2023-03-14T01:43:19;11.35;;;2.10;;
51270;SDS011;37744;50.960;4.136;2023-03-14T01:48:31;9.65;;;2.63;;
51270;SDS011;37744;50.960;4.136;2023-03-14T01:50:58;7.53;;;1.92;;
51270;SDS011;37744;50.960;4.136;2023-03-14T01:53:24;8.15;;;2.03;;
51270;SDS011;37744;50.960;4.136;2023-03-14T01:55:52;9.95;;;2.15;;
51270;SDS011;37744;50.960;4.136;2023-03-14T01:58:19;9.13;;;2.03;;
51270;SDS011;37744;50.960;4.136;2023-03-14T02:00:45;9.43;;;1.70;;
51270;SDS011;37744;50.960;4.136;2023-03-14T02:03:11;11.90;;;2.03;;
51270;SDS011;37744;50.960;4.136;2023-03-14T02:05:38;8.10;;;1.88;;
51270;SDS011;37744;50.960;4.136;2023-03-14T02:08:05;7.75;;;1.40;;
51270;SDS011;37744;50.960;4.136;2023-03-14T02:10:34;11.95;;;1.58;;
51270;SDS011;37744;50.960;4.136;2023-03-14T02:13:01;9.18;;;1.30;;
51270;SDS011;37744;50.960;4.136;2023-03-14T02:15:27;9.15;;;1.60;;
51270;SDS011;37744;50.960;4.136;2023-03-14T02:17:53;5.85;;;1.30;;
51270;SDS011;37744;50.960;4.136;2023-03-14T02:20:31;4.15;;;0.85;;
51270;SDS011;37744;50.960;4.136;2023-03-14T02:23:00;5.85;;;0.90;;
51270;SDS011;37744;50.960;4.136;2023-03-14T02:28:03;3.53;;;0.70;;
51270;SDS011;37744;50.960;4.136;2023-03-14T02:30:30;5.57;;;1.30;;
51270;SDS011;37744;50.960;4.136;2023-03-14T02:33:07;6.47;;;1.02;;
51270;SDS011;37744;50.960;4.136;2023-03-14T02:35:41;6.28;;;1.13;;
51270;SDS011;37744;50.960;4.136;2023-03-14T02:38:13;5.22;;;1.08;;
51270;SDS011;37744;50.960;4.136;2023-03-14T02:40:40;4.60;;;1.20;;
51270;SDS011;37744;50.960;4.136;2023-03-14T02:43:05;6.60;;;1.42;;
51270;SDS011;37744;50.960;4.136;2023-03-14T02:48:00;10.65;;;1.58;;
51270;SDS011;37744;50.960;4.136;2023-03-14T02:50:28;10.38;;;1.92;;
51270;SDS011;37744;50.960;4.136;2023-03-14T02:52:55;8.13;;;1.98;;
51270;SDS011;37744;50.960;4.136;2023-03-14T02:55:21;6.78;;;2.22;;
51270;SDS011;37744;50.960;4.136;2023-03-14T02:57:47;16.13;;;2.50;;
51270;SDS011;37744;50.960;4.136;2023-03-14T03:00:12;8.07;;;1.95;;
51270;SDS011;37744;50.960;4.136;2023-03-14T03:02:38;9.40;;;1.92;;
51270;SDS011;37744;50.960;4.136;2023-03-14T03:05:03;10.30;;;2.20;;
51270;SDS011;37744;50.960;4.136;2023-03-14T03:07:29;10.02;;;2.50;;
51270;SDS011;37744;50.960;4.136;2023-03-14T03:09:56;13.48;;;2.28;;
51270;SDS011;37744;50.960;4.136;2023-03-14T03:12:21;13.07;;;2.53;;
51270;SDS011;37744;50.960;4.136;2023-03-14T03:14:46;11.07;;;2.53;;
51270;SDS011;37744;50.960;4.136;2023-03-14T03:17:11;14.90;;;3.20;;
51270;SDS011;37744;50.960;4.136;2023-03-14T03:19:38;10.18;;;2.50;;
51270;SDS011;37744;50.960;4.136;2023-03-14T03:22:03;12.98;;;2.60;;
51270;SDS011;37744;50.960;4.136;2023-03-14T03:24:28;14.60;;;2.72;;
51270;SDS011;37744;50.960;4.136;2023-03-14T03:26:54;17.35;;;3.00;;
51270;SDS011;37744;50.960;4.136;2023-03-14T03:29:19;14.88;;;3.40;;
51270;SDS011;37744;50.960;4.136;2023-03-14T03:31:45;17.58;;;3.22;;
51270;SDS011;37744;50.960;4.136;2023-03-14T03:34:10;14.65;;;3.28;;
51270;SDS011;37744;50.960;4.136;2023-03-14T03:36:36;13.68;;;3.13;;
51270;SDS011;37744;50.960;4.136;2023-03-14T03:39:01;15.93;;;3.22;;
51270;SDS011;37744;50.960;4.136;2023-03-14T03:41:26;13.98;;;3.33;;
51270;SDS011;37744;50.960;4.136;2023-03-14T03:43:52;12.73;;;2.83;;
51270;SDS011;37744;50.960;4.136;2023-03-14T03:46:19;13.88;;;3.10;;
51270;SDS011;37744;50.960;4.136;2023-03-14T03:48:45;12.95;;;3.28;;
51270;SDS011;37744;50.960;4.136;2023-03-14T03:51:12;14.23;;;3.20;;
51270;SDS011;37744;50.960;4.136;2023-03-14T03:53:38;16.95;;;3.55;;
51270;SDS011;37744;50.960;4.136;2023-03-14T03:56:04;16.92;;;3.17;;
51270;SDS011;37744;50.960;4.136;2023-03-14T03:58:30;12.65;;;2.92;;
51270;SDS011;37744;50.960;4.136;2023-03-14T04:00:55;15.45;;;3.70;;
51270;SDS011;37744;50.960;4.136;2023-03-14T04:03:21;12.63;;;2.95;;
51270;SDS011;37744;50.960;4.136;2023-03-14T04:05:46;13.38;;;3.63;;
51270;SDS011;37744;50.960;4.136;2023-03-14T04:08:11;14.85;;;3.25;;
51270;SDS011;37744;50.960;4.136;2023-03-14T04:10:36;13.55;;;3.63;;
51270;SDS011;37744;50.960;4.136;2023-03-14T04:13:02;12.02;;;3.75;;
51270;SDS011;37744;50.960;4.136;2023-03-14T04:15:27;13.60;;;3.42;;
51270;SDS011;37744;50.960;4.136;2023-03-14T04:17:56;14.13;;;3.80;;
51270;SDS011;37744;50.960;4.136;2023-03-14T04:20:21;10.23;;;3.58;;
51270;SDS011;37744;50.960;4.136;2023-03-14T04:22:48;8.43;;;3.35;;
51270;SDS011;37744;50.960;4.136;2023-03-14T04:25:13;14.48;;;3.63;;
51270;SDS011;37744;50.960;4.136;2023-03-14T04:27:38;11.85;;;3.40;;
51270;SDS011;37744;50.960;4.136;2023-03-14T04:30:04;10.27;;;3.53;;
51270;SDS011;37744;50.960;4.136;2023-03-14T04:32:30;8.35;;;2.85;;
51270;SDS011;37744;50.960;4.136;2023-03-14T04:34:55;8.38;;;2.70;;
51270;SDS011;37744;50.960;4.136;2023-03-14T04:37:21;9.15;;;2.90;;
51270;SDS011;37744;50.960;4.136;2023-03-14T04:39:46;9.73;;;2.78;;
51270;SDS011;37744;50.960;4.136;2023-03-14T04:42:11;7.25;;;2.55;;
51270;SDS011;37744;50.960;4.136;2023-03-14T04:44:37;9.07;;;2.95;;
51270;SDS011;37744;50.960;4.136;2023-03-14T04:47:02;6.22;;;2.60;;
51270;SDS011;37744;50.960;4.136;2023-03-14T04:49:27;10.25;;;3.03;;
51270;SDS011;37744;50.960;4.136;2023-03-14T04:51:52;8.30;;;3.35;;
51270;SDS011;37744;50.960;4.136;2023-03-14T04:54:19;7.95;;;2.92;;
51270;SDS011;37744;50.960;4.136;2023-03-14T04:56:44;7.88;;;3.10;;
51270;SDS011;37744;50.960;4.136;2023-03-14T04:59:09;6.32;;;2.42;;
51270;SDS011;37744;50.960;4.136;2023-03-14T05:01:36;9.07;;;3.17;;
51270;SDS011;37744;50.960;4.136;2023-03-14T05:04:01;11.13;;;4.00;;
51270;SDS011;37744;50.960;4.136;2023-03-14T05:06:26;9.82;;;3.50;;
51270;SDS011;37744;50.960;4.136;2023-03-14T05:08:52;9.77;;;3.50;;
51270;SDS011;37744;50.960;4.136;2023-03-14T05:11:18;11.07;;;3.60;;
51270;SDS011;37744;50.960;4.136;2023-03-14T05:13:43;9.32;;;3.60;;
51270;SDS011;37744;50.960;4.136;2023-03-14T05:16:09;10.63;;;4.10;;
51270;SDS011;37744;50.960;4.136;2023-03-14T05:18:35;11.23;;;3.70;;
51270;SDS011;37744;50.960;4.136;2023-03-14T05:21:00;10.93;;;3.47;;
51270;SDS011;37744;50.960;4.136;2023-03-14T05:23:26;11.38;;;4.18;;
51270;SDS011;37744;50.960;4.136;2023-03-14T05:25:52;11.90;;;4.50;;
51270;SDS011;37744;50.960;4.136;2023-03-14T05:28:17;9.82;;;4.15;;
51270;SDS011;37744;50.960;4.136;2023-03-14T05:30:43;10.30;;;3.97;;
51270;SDS011;37744;50.960;4.136;2023-03-14T05:33:09;16.65;;;4.60;;
51270;SDS011;37744;50.960;4.136;2023-03-14T05:35:34;11.52;;;4.72;;
51270;SDS011;37744;50.960;4.136;2023-03-14T05:37:59;10.43;;;4.60;;
51270;SDS011;37744;50.960;4.136;2023-03-14T05:40:25;9.23;;;4.20;;
51270;SDS011;37744;50.960;4.136;2023-03-14T05:42:50;7.28;;;3.55;;
51270;SDS011;37744;50.960;4.136;2023-03-14T05:45:16;9.70;;;4.18;;
51270;SDS011;37744;50.960;4.136;2023-03-14T05:47:41;10.10;;;4.05;;
51270;SDS011;37744;50.960;4.136;2023-03-14T05:50:06;6.20;;;3.60;;
51270;SDS011;37744;50.960;4.136;2023-03-14T05:52:32;9.68;;;4.07;;
51270;SDS011;37744;50.960;4.136;2023-03-14T05:54:57;7.53;;;4.05;;
51270;SDS011;37744;50.960;4.136;2023-03-14T05:57:22;11.85;;;4.07;;
51270;SDS011;37744;50.960;4.136;2023-03-14T05:59:48;11.18;;;4.80;;
51270;SDS011;37744;50.960;4.136;2023-03-14T06:02:13;9.98;;;4.05;;
51270;SDS011;37744;50.960;4.136;2023-03-14T06:04:38;9.52;;;4.32;;
51270;SDS011;37744;50.960;4.136;2023-03-14T06:07:05;9.75;;;3.90;;
51270;SDS011;37744;50.960;4.136;2023-03-14T06:09:30;6.45;;;3.53;;
51270;SDS011;37744;50.960;4.136;2023-03-14T06:11:55;6.35;;;3.33;;
51270;SDS011;37744;50.960;4.136;2023-03-14T06:14:20;9.25;;;3.45;;
51270;SDS011;37744;50.960;4.136;2023-03-14T06:16:46;5.75;;;3.28;;
51270;SDS011;37744;50.960;4.136;2023-03-14T06:19:13;8.38;;;3.05;;
51270;SDS011;37744;50.960;4.136;2023-03-14T06:21:39;8.10;;;3.03;;
51270;SDS011;37744;50.960;4.136;2023-03-14T06:24:04;14.60;;;4.70;;
51270;SDS011;37744;50.960;4.136;2023-03-14T06:26:29;10.13;;;4.05;;
51270;SDS011;37744;50.960;4.136;2023-03-14T06:28:55;9.82;;;3.83;;
51270;SDS011;37744;50.960;4.136;2023-03-14T06:31:20;9.57;;;3.90;;
51270;SDS011;37744;50.960;4.136;2023-03-14T06:33:47;8.07;;;3.60;;
51270;SDS011;37744;50.960;4.136;2023-03-14T06:36:12;9.27;;;3.65;;
51270;SDS011;37744;50.960;4.136;2023-03-14T06:38:37;9.88;;;3.72;;
51270;SDS011;37744;50.960;4.136;2023-03-14T06:41:03;8.25;;;4.07;;
51270;SDS011;37744;50.960;4.136;2023-03-14T06:43:29;8.32;;;3.53;;
51270;SDS011;37744;50.960;4.136;2023-03-14T06:45:54;8.68;;;3.92;;
51270;SDS011;37744;50.960;4.136;2023-03-14T06:48:19;6.55;;;3.67;;
51270;SDS011;37744;50.960;4.136;2023-03-14T06:50:47;9.05;;;3.65;;
51270;SDS011;37744;50.960;4.136;2023-03-14T06:53:12;9.88;;;2.92;;
51270;SDS011;37744;50.960;4.136;2023-03-14T06:55:38;9.15;;;2.50;;
51270;SDS011;37744;50.960;4.136;2023-03-14T06:58:03;6.43;;;2.83;;
51270;SDS011;37744;50.960;4.136;2023-03-14T07:00:28;6.07;;;2.78;;
51270;SDS011;37744;50.960;4.136;2023-03-14T07:02:54;5.63;;;2.65;;
51270;SDS011;37744;50.960;4.136;2023-03-14T07:05:19;5.50;;;2.03;;
51270;SDS011;37744;50.960;4.136;2023-03-14T07:07:44;5.15;;;2.50;;
51270;SDS011;37744;50.960;4.136;2023-03-14T07:10:10;5.35;;;2.17;;
51270;SDS011;37744;50.960;4.136;2023-03-14T07:12:35;8.05;;;2.47;;
51270;SDS011;37744;50.960;4.136;2023-03-14T07:15:00;7.03;;;2.00;;
51270;SDS011;37744;50.960;4.136;2023-03-14T07:17:26;6.50;;;2.42;;
51270;SDS011;37744;50.960;4.136;2023-03-14T07:19:52;10.15;;;2.33;;
51270;SDS011;37744;50.960;4.136;2023-03-14T07:22:18;7.43;;;2.90;;
51270;SDS011;37744;50.960;4.136;2023-03-14T07:24:43;10.00;;;2.97;;
51270;SDS011;37744;50.960;4.136;2023-03-14T07:27:08;7.65;;;3.13;;
51270;SDS011;37744;50.960;4.136;2023-03-14T07:29:33;8.80;;;3.58;;
51270;SDS011;37744;50.960;4.136;2023-03-14T07:31:59;7.40;;;4.03;;
51270;SDS011;37744;50.960;4.136;2023-03-14T07:34:24;11.02;;;3.70;;
51270;SDS011;37744;50.960;4.136;2023-03-14T07:36:50;9.65;;;4.00;;
51270;SDS011;37744;50.960;4.136;2023-03-14T07:39:16;9.07;;;4.55;;
51270;SDS011;37744;50.960;4.136;2023-03-14T07:41:41;11.88;;;4.85;;
51270;SDS011;37744;50.960;4.136;2023-03-14T07:44:06;17.00;;;5.18;;
51270;SDS011;37744;50.960;4.136;2023-03-14T07:46:32;12.20;;;5.60;;
51270;SDS011;37744;50.960;4.136;2023-03-14T07:48:57;10.35;;;4.88;;
51270;SDS011;37744;50.960;4.136;2023-03-14T07:51:22;10.43;;;4.60;;
51270;SDS011;37744;50.960;4.136;2023-03-14T07:53:48;11.43;;;5.05;;
51270;SDS011;37744;50.960;4.136;2023-03-14T07:56:13;12.77;;;5.28;;
51270;SDS011;37744;50.960;4.136;2023-03-14T07:58:38;10.70;;;3.40;;
51270;SDS011;37744;50.960;4.136;2023-03-14T08:01:04;5.63;;;3.10;;
51270;SDS011;37744;50.960;4.136;2023-03-14T08:03:29;8.63;;;3.42;;
51270;SDS011;37744;50.960;4.136;2023-03-14T08:05:54;8.57;;;3.30;;
51270;SDS011;37744;50.960;4.136;2023-03-14T08:08:20;6.72;;;2.65;;
51270;SDS011;37744;50.960;4.136;2023-03-14T08:10:45;7.93;;;2.80;;
51270;SDS011;37744;50.960;4.136;2023-03-14T08:13:11;4.93;;;3.03;;
51270;SDS011;37744;50.960;4.136;2023-03-14T08:15:37;6.63;;;3.13;;
51270;SDS011;37744;50.960;4.136;2023-03-14T08:18:03;7.93;;;3.53;;
51270;SDS011;37744;50.960;4.136;2023-03-14T08:20:28;7.30;;;3.63;;
51270;SDS011;37744;50.960;4.136;2023-03-14T08:22:57;10.23;;;4.32;;
51270;SDS011;37744;50.960;4.136;2023-03-14T08:25:23;7.30;;;3.50;;
51270;SDS011;37744;50.960;4.136;2023-03-14T08:27:48;9.90;;;3.58;;
51270;SDS011;37744;50.960;4.136;2023-03-14T08:30:14;8.25;;;3.95;;
51270;SDS011;37744;50.960;4.136;2023-03-14T08:32:40;6.47;;;3.60;;
51270;SDS011;37744;50.960;4.136;2023-03-14T08:35:05;8.80;;;3.55;;
51270;SDS011;37744;50.960;4.136;2023-03-14T08:37:31;7.63;;;3.60;;
51270;SDS011;37744;50.960;4.136;2023-03-14T08:39:57;10.05;;;3.78;;
51270;SDS011;37744;50.960;4.136;2023-03-14T08:42:22;10.65;;;4.75;;
51270;SDS011;37744;50.960;4.136;2023-03-14T08:44:47;10.60;;;4.43;;
51270;SDS011;37744;50.960;4.136;2023-03-14T08:47:13;11.95;;;4.43;;
51270;SDS011;37744;50.960;4.136;2023-03-14T08:49:38;10.55;;;4.70;;
51270;SDS011;37744;50.960;4.136;2023-03-14T08:52:04;10.07;;;5.00;;
51270;SDS011;37744;50.960;4.136;2023-03-14T08:54:29;8.75;;;4.18;;
51270;SDS011;37744;50.960;4.136;2023-03-14T08:56:55;11.52;;;4.65;;
51270;SDS011;37744;50.960;4.136;2023-03-14T08:59:20;12.60;;;4.97;;
51270;SDS011;37744;50.960;4.136;2023-03-14T09:01:45;10.77;;;4.78;;
51270;SDS011;37744;50.960;4.136;2023-03-14T09:04:11;12.65;;;5.18;;
51270;SDS011;37744;50.960;4.136;2023-03-14T09:06:36;8.85;;;5.28;;
51270;SDS011;37744;50.960;4.136;2023-03-14T09:09:02;10.23;;;4.97;;
51270;SDS011;37744;50.960;4.136;2023-03-14T09:11:28;10.98;;;4.90;;
51270;SDS011;37744;50.960;4.136;2023-03-14T09:13:53;12.98;;;4.60;;
51270;SDS011;37744;50.960;4.136;2023-03-14T09:16:18;16.08;;;4.07;;
51270;SDS011;37744;50.960;4.136;2023-03-14T09:18:44;9.63;;;3.10;;
51270;SDS011;37744;50.960;4.136;2023-03-14T09:21:09;11.68;;;3.38;;
51270;SDS011;37744;50.960;4.136;2023-03-14T09:23:34;11.05;;;3.28;;
51270;SDS011;37744;50.960;4.136;2023-03-14T09:26:00;10.15;;;3.40;;
51270;SDS011;37744;50.960;4.136;2023-03-14T09:28:26;14.75;;;3.97;;
51270;SDS011;37744;50.960;4.136;2023-03-14T09:30:51;14.25;;;3.50;;
51270;SDS011;37744;50.960;4.136;2023-03-14T09:33:17;12.52;;;3.60;;
51270;SDS011;37744;50.960;4.136;2023-03-14T09:35:42;12.30;;;3.30;;
51270;SDS011;37744;50.960;4.136;2023-03-14T09:38:08;17.25;;;3.78;;
51270;SDS011;37744;50.960;4.136;2023-03-14T09:40:36;13.93;;;3.50;;
51270;SDS011;37744;50.960;4.136;2023-03-14T09:43:02;10.60;;;3.55;;
51270;SDS011;37744;50.960;4.136;2023-03-14T09:45:29;12.88;;;3.55;;
51270;SDS011;37744;50.960;4.136;2023-03-14T09:47:58;10.25;;;3.45;;
51270;SDS011;37744;50.960;4.136;2023-03-14T09:50:23;9.45;;;2.95;;
51270;SDS011;37744;50.960;4.136;2023-03-14T09:52:51;11.52;;;3.33;;
51270;SDS011;37744;50.960;4.136;2023-03-14T09:55:19;12.25;;;2.97;;
51270;SDS011;37744;50.960;4.136;2023-03-14T09:57:46;12.68;;;3.15;;
51270;SDS011;37744;50.960;4.136;2023-03-14T10:00:15;13.60;;;3.30;;
51270;SDS011;37744;50.960;4.136;2023-03-14T10:02:51;14.40;;;2.60;;
51270;SDS011;37744;50.960;4.136;2023-03-14T10:05:18;17.38;;;3.78;;
51270;SDS011;37744;50.960;4.136;2023-03-14T10:07:45;12.98;;;2.67;;
51270;SDS011;37744;50.960;4.136;2023-03-14T10:10:11;16.77;;;3.10;;
51270;SDS011;37744;50.960;4.136;2023-03-14T10:12:38;9.50;;;2.92;;
51270;SDS011;37744;50.960;4.136;2023-03-14T10:15:08;10.07;;;3.13;;
51270;SDS011;37744;50.960;4.136;2023-03-14T10:17:43;11.07;;;3.38;;
51270;SDS011;37744;50.960;4.136;2023-03-14T10:20:30;11.52;;;3.00;;
51270;SDS011;37744;50.960;4.136;2023-03-14T10:25:27;6.38;;;1.88;;
51270;SDS011;37744;50.960;4.136;2023-03-14T10:27:53;6.13;;;2.13;;
51270;SDS011;37744;50.960;4.136;2023-03-14T10:30:29;5.13;;;2.00;;
51270;SDS011;37744;50.960;4.136;2023-03-14T10:32:55;6.70;;;2.38;;
51270;SDS011;37744;50.960;4.136;2023-03-14T10:35:21;6.65;;;2.53;;
51270;SDS011;37744;50.960;4.136;2023-03-14T10:37:55;5.32;;;1.92;;
51270;SDS011;37744;50.960;4.136;2023-03-14T10:40:23;3.78;;;1.38;;
51270;SDS011;37744;50.960;4.136;2023-03-14T10:42:49;6.07;;;1.33;;
51270;SDS011;37744;50.960;4.136;2023-03-14T10:47:58;3.10;;;0.98;;
51270;SDS011;37744;50.960;4.136;2023-03-14T10:50:28;2.28;;;1.33;;
51270;SDS011;37744;50.960;4.136;2023-03-14T10:52:54;6.30;;;1.20;;
51270;SDS011;37744;50.960;4.136;2023-03-14T10:55:19;4.72;;;1.33;;
51270;SDS011;37744;50.960;4.136;2023-03-14T10:57:44;5.95;;;1.50;;
51270;SDS011;37744;50.960;4.136;2023-03-14T11:00:14;4.00;;;1.13;;
51270;SDS011;37744;50.960;4.136;2023-03-14T11:05:20;3.40;;;1.00;;
51270;SDS011;37744;50.960;4.136;2023-03-14T11:07:48;4.38;;;1.05;;
51270;SDS011;37744;50.960;4.136;2023-03-14T11:10:18;3.13;;;1.13;;
51270;SDS011;37744;50.960;4.136;2023-03-14T11:13:00;5.40;;;1.10;;
51270;SDS011;37744;50.960;4.136;2023-03-14T11:23:24;6.03;;;1.40;;
51270;SDS011;37744;50.960;4.136;2023-03-14T11:33:15;8.77;;;1.80;;
51270;SDS011;37744;50.960;4.136;2023-03-14T11:35:45;2.40;;;1.10;;
51270;SDS011;37744;50.960;4.136;2023-03-14T11:38:30;2.85;;;1.08;;
51270;SDS011;37744;50.960;4.136;2023-03-14T11:40:56;2.50;;;1.17;;
51270;SDS011;37744;50.960;4.136;2023-03-14T11:43:40;7.00;;;1.50;;
51270;SDS011;37744;50.960;4.136;2023-03-14T11:46:27;4.55;;;1.27;;
51270;SDS011;37744;50.960;4.136;2023-03-14T11:51:38;3.50;;;1.15;;
51270;SDS011;37744;50.960;4.136;2023-03-14T11:59:27;2.92;;;1.13;;
51270;SDS011;37744;50.960;4.136;2023-03-14T12:01:55;5.70;;;1.77;;
51270;SDS011;37744;50.960;4.136;2023-03-14T12:05:13;4.35;;;1.85;;
51270;SDS011;37744;50.960;4.136;2023-03-14T12:07:17;5.45;;;1.77;;
51270;SDS011;37744;50.960;4.136;2023-03-14T12:09:44;7.25;;;1.98;;
51270;SDS011;37744;50.960;4.136;2023-03-14T12:12:12;8.02;;;2.33;;
51270;SDS011;37744;50.960;4.136;2023-03-14T12:14:38;10.45;;;2.72;;
51270;SDS011;37744;50.960;4.136;2023-03-14T12:19:41;10.20;;;2.10;;
51270;SDS011;37744;50.960;4.136;2023-03-14T12:24:32;8.82;;;2.25;;
51270;SDS011;37744;50.960;4.136;2023-03-14T12:27:00;10.48;;;2.53;;
51270;SDS011;37744;50.960;4.136;2023-03-14T12:29:27;6.82;;;2.30;;
51270;SDS011;37744;50.960;4.136;2023-03-14T12:42:05;8.52;;;2.25;;
51270;SDS011;37744;50.960;4.136;2023-03-14T12:44:44;9.98;;;2.13;;
51270;SDS011;37744;50.960;4.136;2023-03-14T12:49:45;10.27;;;2.60;;
51270;SDS011;37744;50.960;4.136;2023-03-14T12:52:15;11.65;;;3.60;;
51270;SDS011;37744;50.960;4.136;2023-03-14T12:59:50;15.93;;;3.20;;
51270;SDS011;37744;50.960;4.136;2023-03-14T13:04:48;19.90;;;4.22;;
51270;SDS011;37744;50.960;4.136;2023-03-14T13:10:09;26.52;;;4.05;;
51270;SDS011;37744;50.960;4.136;2023-03-14T13:17:47;22.23;;;4.15;;
51270;SDS011;37744;50.960;4.136;2023-03-14T13:22:57;25.38;;;4.28;;
51270;SDS011;37744;50.960;4.136;2023-03-14T13:25:22;18.95;;;2.80;;
51270;SDS011;37744;50.960;4.136;2023-03-14T13:27:48;13.32;;;2.70;;
51270;SDS011;37744;50.960;4.136;2023-03-14T13:30:24;17.17;;;2.88;;
51270;SDS011;37744;50.960;4.136;2023-03-14T13:32:50;11.05;;;1.85;;
51270;SDS011;37744;50.960;4.136;2023-03-14T13:37:41;14.63;;;2.80;;
51270;SDS011;37744;50.960;4.136;2023-03-14T13:40:18;12.63;;;2.47;;
51270;SDS011;37744;50.960;4.136;2023-03-14T13:42:43;14.05;;;2.50;;
51270;SDS011;37744;50.960;4.136;2023-03-14T13:45:11;17.75;;;2.70;;
51270;SDS011;37744;50.960;4.136;2023-03-14T13:47:37;12.80;;;2.42;;
51270;SDS011;37744;50.960;4.136;2023-03-14T13:50:03;21.65;;;3.00;;
51270;SDS011;37744;50.960;4.136;2023-03-14T13:52:35;14.50;;;3.53;;
51270;SDS011;37744;50.960;4.136;2023-03-14T13:55:02;15.90;;;2.90;;
51270;SDS011;37744;50.960;4.136;2023-03-14T13:57:42;10.30;;;2.53;;
51270;SDS011;37744;50.960;4.136;2023-03-14T14:00:17;12.82;;;2.00;;
51270;SDS011;37744;50.960;4.136;2023-03-14T14:02:42;17.13;;;2.17;;
51270;SDS011;37744;50.960;4.136;2023-03-14T14:05:10;11.32;;;2.13;;
51270;SDS011;37744;50.960;4.136;2023-03-14T14:07:35;12.27;;;2.40;;
51270;SDS011;37744;50.960;4.136;2023-03-14T14:10:03;16.75;;;3.17;;
51270;SDS011;37744;50.960;4.136;2023-03-14T14:12:30;7.43;;;1.70;;
51270;SDS011;37744;50.960;4.136;2023-03-14T14:15:01;14.48;;;2.70;;
51270;SDS011;37744;50.960;4.136;2023-03-14T14:17:49;11.25;;;2.40;;
51270;SDS011;37744;50.960;4.136;2023-03-14T14:20:16;7.53;;;1.55;;
51270;SDS011;37744;50.960;4.136;2023-03-14T14:22:43;9.65;;;1.55;;
51270;SDS011;37744;50.960;4.136;2023-03-14T14:25:12;7.97;;;1.40;;
51270;SDS011;37744;50.960;4.136;2023-03-14T14:27:38;5.32;;;1.42;;
51270;SDS011;37744;50.960;4.136;2023-03-14T14:32:43;6.50;;;0.90;;
51270;SDS011;37744;50.960;4.136;2023-03-14T14:35:31;4.90;;;0.85;;
51270;SDS011;37744;50.960;4.136;2023-03-14T14:37:54;7.43;;;0.65;;
51270;SDS011;37744;50.960;4.136;2023-03-14T14:40:20;0.93;;;0.50;;
51270;SDS011;37744;50.960;4.136;2023-03-14T14:42:47;2.75;;;0.70;;
51270;SDS011;37744;50.960;4.136;2023-03-14T14:45:18;3.15;;;0.73;;
51270;SDS011;37744;50.960;4.136;2023-03-14T14:47:54;3.20;;;0.70;;
51270;SDS011;37744;50.960;4.136;2023-03-14T14:51:06;6.82;;;0.65;;
51270;SDS011;37744;50.960;4.136;2023-03-14T15:19:33;2.70;;;0.57;;
51270;SDS011;37744;50.960;4.136;2023-03-14T15:21:59;2.10;;;0.85;;
51270;SDS011;37744;50.960;4.136;2023-03-14T15:24:24;3.33;;;1.30;;
51270;SDS011;37744;50.960;4.136;2023-03-14T15:26:50;1.75;;;1.23;;
51270;SDS011;37744;50.960;4.136;2023-03-14T15:29:16;5.75;;;1.30;;
51270;SDS011;37744;50.960;4.136;2023-03-14T15:31:41;4.72;;;1.00;;
51270;SDS011;37744;50.960;4.136;2023-03-14T15:34:08;3.88;;;1.20;;
51270;SDS011;37744;50.960;4.136;2023-03-14T15:36:36;5.45;;;2.20;;
51270;SDS011;37744;50.960;4.136;2023-03-14T15:39:09;8.93;;;2.50;;
51270;SDS011;37744;50.960;4.136;2023-03-14T15:41:34;5.60;;;2.33;;
51270;SDS011;37744;50.960;4.136;2023-03-14T15:44:00;6.40;;;1.88;;
51270;SDS011;37744;50.960;4.136;2023-03-14T15:46:25;5.20;;;1.30;;
51270;SDS011;37744;50.960;4.136;2023-03-14T15:48:51;5.32;;;1.30;;
51270;SDS011;37744;50.960;4.136;2023-03-14T15:51:16;3.15;;;1.25;;
51270;SDS011;37744;50.960;4.136;2023-03-14T15:53:45;4.90;;;1.63;;
51270;SDS011;37744;50.960;4.136;2023-03-14T15:56:13;6.55;;;1.60;;
51270;SDS011;37744;50.960;4.136;2023-03-14T15:58:38;11.45;;;1.90;;
51270;SDS011;37744;50.960;4.136;2023-03-14T16:01:05;9.95;;;1.95;;
51270;SDS011;37744;50.960;4.136;2023-03-14T16:03:33;12.00;;;2.10;;
51270;SDS011;37744;50.960;4.136;2023-03-14T16:05:59;11.30;;;2.05;;
51270;SDS011;37744;50.960;4.136;2023-03-14T16:08:24;12.15;;;1.70;;
51270;SDS011;37744;50.960;4.136;2023-03-14T16:10:51;8.25;;;2.15;;
51270;SDS011;37744;50.960;4.136;2023-03-14T16:13:17;6.68;;;1.92;;
51270;SDS011;37744;50.960;4.136;2023-03-14T16:15:52;13.70;;;2.10;;
51270;SDS011;37744;50.960;4.136;2023-03-14T16:18:17;14.80;;;2.50;;
51270;SDS011;37744;50.960;4.136;2023-03-14T16:20:50;13.73;;;2.42;;
51270;SDS011;37744;50.960;4.136;2023-03-14T16:23:16;15.80;;;2.70;;
51270;SDS011;37744;50.960;4.136;2023-03-14T16:25:45;15.30;;;2.45;;
51270;SDS011;37744;50.960;4.136;2023-03-14T16:28:18;6.57;;;1.85;;